Time;durP1;ratioP1;P1;durP2;ratioP2;P2;SDS_P1;SDS_P2;PMS_P1;PMS_P2;Temp;Humidity;BMP_temperature;BMP_pressure;BME280_temperature;BME280_humidity;BME280_pressure;Samples;Min_cycle;Max_cycle;Signal;HPM_P1;HPM_P2
2023/11/15 00:02:12;;;;;;;28.85;6.07;;;11.40;99.90;;;;;;4934987;29;20032;-86
2023/11/15 00:04:49;;;;;;;25.77;4.65;;;12.50;99.90;;;;;;4934910;29;20354;-87
2023/11/15 00:08:11;;;;;;;25.02;4.85;;;11.50;99.90;;;;;;4934139;29;20047;-87
2023/11/15 00:10:40;;;;;;;18.80;4.25;;;10.90;99.90;;;;;;4934596;29;20031;-87
2023/11/15 00:16:29;;;;;;;19.67;4.53;;;10.80;99.90;;;;;;4923872;29;20038;-87
2023/11/15 00:18:57;;;;;;;21.40;4.40;;;11.50;99.90;;;;;;4934768;29;20039;-86
2023/11/15 00:21:23;;;;;;;15.80;4.03;;;11.50;99.90;;;;;;4933293;29;20083;-86
2023/11/15 00:23:49;;;;;;;27.55;5.20;;;12.40;99.90;;;;;;4928837;29;20067;-87
2023/11/15 00:26:14;;;;;;;24.80;4.47;;;11.50;99.90;;;;;;4926209;29;20035;-87
2023/11/15 00:28:48;;;;;;;22.73;5.53;;;12.70;99.90;;;;;;4920715;29;20103;-87
2023/11/15 00:31:14;;;;;;;28.40;4.78;;;12.80;99.90;;;;;;4915513;29;20040;-87
2023/11/15 00:33:45;;;;;;;27.05;4.97;;;11.60;99.90;;;;;;4915722;29;20040;-87
2023/11/15 00:36:19;;;;;;;27.83;4.95;;;11.40;99.90;;;;;;4915305;29;20120;-87
2023/11/15 00:38:51;;;;;;;17.58;3.88;;;12.60;99.90;;;;;;4915489;29;20028;-82
2023/11/15 00:41:18;;;;;;;23.58;4.07;;;11.60;99.90;;;;;;4915313;29;20075;-86
2023/11/15 00:43:44;;;;;;;12.55;3.47;;;11.50;99.90;;;;;;4915129;29;20052;-86
2023/11/15 00:46:12;;;;;;;17.52;4.15;;;11.60;99.90;;;;;;4922427;29;20057;-86
2023/11/15 00:48:39;;;;;;;13.23;2.80;;;11.60;99.90;;;;;;4914233;29;20120;-87
2023/11/15 00:51:06;;;;;;;19.25;3.35;;;11.50;99.90;;;;;;4915368;29;20040;-86
2023/11/15 00:53:32;;;;;;;18.58;4.93;;;11.50;99.90;;;;;;4915159;29;20028;-87
2023/11/15 00:55:58;;;;;;;20.48;4.00;;;11.40;99.90;;;;;;4914614;29;20024;-86
2023/11/15 00:58:29;;;;;;;19.60;3.63;;;12.30;99.90;;;;;;4914560;29;20028;-87
2023/11/15 01:00:59;;;;;;;18.38;3.83;;;12.10;99.90;;;;;;4915592;29;20103;-87
2023/11/15 01:03:26;;;;;;;28.02;4.35;;;11.40;99.90;;;;;;4914747;29;20107;-87
2023/11/15 01:06:01;;;;;;;20.20;3.65;;;11.40;99.90;;;;;;4917673;29;20027;-87
2023/11/15 01:08:26;;;;;;;18.30;4.13;;;11.40;99.90;;;;;;4923425;29;20492;-87
2023/11/15 01:10:53;;;;;;;22.90;3.88;;;11.40;99.90;;;;;;4914565;29;20036;-87
2023/11/15 01:13:20;;;;;;;19.38;3.78;;;11.50;99.90;;;;;;4915861;29;20028;-88
2023/11/15 01:15:46;;;;;;;15.68;3.88;;;11.40;99.90;;;;;;4922071;29;20053;-87
2023/11/15 01:18:12;;;;;;;23.80;4.28;;;11.30;99.90;;;;;;4927232;29;20143;-87
2023/11/15 01:20:38;;;;;;;21.83;4.50;;;11.40;99.90;;;;;;4934527;29;20027;-88
2023/11/15 01:23:06;;;;;;;22.02;3.47;;;11.30;99.90;;;;;;4933983;29;20032;-88
2023/11/15 01:25:32;;;;;;;19.25;3.63;;;11.30;99.90;;;;;;4934985;29;20032;-87
2023/11/15 01:27:59;;;;;;;13.77;3.40;;;11.30;99.90;;;;;;4931578;29;20024;-87
2023/11/15 01:30:28;;;;;;;23.95;4.38;;;12.10;99.90;;;;;;4923245;29;20064;-87
2023/11/15 01:33:11;;;;;;;19.27;3.55;;;11.30;99.90;;;;;;4915948;29;20465;-87
2023/11/15 01:35:37;;;;;;;18.10;3.55;;;11.40;99.90;;;;;;4919038;29;20087;-86
2023/11/15 01:38:03;;;;;;;17.42;3.30;;;12.70;99.90;;;;;;4920108;29;20024;-87
2023/11/15 01:40:33;;;;;;;19.35;3.67;;;11.30;99.90;;;;;;4919378;29;20036;-87
2023/11/15 01:43:43;;;;;;;22.73;4.13;;;12.80;99.90;;;;;;4918951;29;20118;-88
2023/11/15 01:46:15;;;;;;;16.75;2.83;;;12.40;99.90;;;;;;4918323;29;20024;-88
2023/11/15 01:48:43;;;;;;;16.55;3.25;;;11.60;99.90;;;;;;4919748;29;20444;-87
2023/11/15 01:51:14;;;;;;;13.75;3.70;;;12.00;99.90;;;;;;4935609;29;20432;-86
2023/11/15 01:53:56;;;;;;;;;;;;;;;;;;;;;
2023/11/15 01:56:30;;;;;;;14.50;3.50;;;11.20;99.90;;;;;;4921451;29;19911;-86
2023/11/15 01:59:06;;;;;;;19.02;3.25;;;11.30;99.90;;;;;;4922034;29;20028;-86
2023/11/15 02:01:37;;;;;;;23.92;3.67;;;11.30;99.90;;;;;;4920469;29;20035;-87
2023/11/15 02:04:06;;;;;;;15.23;3.80;;;11.80;99.90;;;;;;4921478;29;20056;-87
2023/11/15 02:06:37;;;;;;;17.00;3.97;;;11.40;99.90;;;;;;4920192;29;20092;-86
2023/11/15 02:09:16;;;;;;;15.73;2.83;;;11.30;99.90;;;;;;4923043;29;20614;-86
2023/11/15 02:11:46;;;;;;;24.20;3.22;;;11.90;99.90;;;;;;4930146;29;20532;-87
2023/11/15 02:14:15;;;;;;;;;;;12.50;99.90;;;;;;4921735;29;20033;-88
2023/11/15 02:16:56;;;;;;;;;;;;;;;;;;;;;
2023/11/15 02:19:24;;;;;;;14.23;2.83;;;11.30;99.90;;;;;;4918869;29;20043;-87
2023/11/15 02:22:00;;;;;;;19.65;3.60;;;11.40;99.90;;;;;;4918220;29;20028;-87
2023/11/15 02:24:33;;;;;;;22.40;3.50;;;10.40;99.90;;;;;;4918172;29;20089;-87
2023/11/15 02:27:05;;;;;;;16.58;3.03;;;11.40;99.90;;;;;;4917386;29;20035;-88
2023/11/15 02:29:39;;;;;;;15.60;3.60;;;11.70;99.90;;;;;;4921295;29;20035;-86
2023/11/15 02:32:05;;;;;;;17.30;3.83;;;10.30;99.90;;;;;;4927732;29;20553;-87
2023/11/15 02:34:39;;;;;;;9.90;2.58;;;11.20;99.90;;;;;;4919483;29;20103;-87
2023/11/15 02:37:06;;;;;;;15.93;3.22;;;12.50;99.90;;;;;;4918050;29;20055;-85
2023/11/15 02:39:32;;;;;;;21.80;3.13;;;11.80;99.90;;;;;;4917511;29;20028;-87
2023/11/15 02:41:57;;;;;;;17.52;3.00;;;12.70;99.90;;;;;;4917379;29;20025;-88
2023/11/15 02:44:26;;;;;;;11.30;3.55;;;11.10;99.90;;;;;;4917569;29;20059;-87
2023/11/15 02:46:52;;;;;;;13.57;2.75;;;12.80;99.90;;;;;;4917593;29;20020;-87
2023/11/15 02:49:47;;;;;;;22.65;3.35;;;12.80;99.90;;;;;;4919234;29;20489;-87
2023/11/15 02:55:53;;;;;;;10.63;2.65;;;10.70;99.90;;;;;;4939521;29;20115;-87
2023/11/15 02:58:24;;;;;;;25.65;4.30;;;11.40;99.90;;;;;;4936592;29;20036;-87
2023/11/15 03:00:54;;;;;;;19.83;3.80;;;11.20;99.90;;;;;;4936551;29;20100;-87
2023/11/15 03:03:19;;;;;;;15.23;3.08;;;11.70;99.90;;;;;;4935817;29;20023;-88
2023/11/15 03:05:46;;;;;;;21.33;3.20;;;11.60;99.90;;;;;;4936139;29;20564;-88
2023/11/15 03:08:12;;;;;;;21.48;4.88;;;11.90;99.90;;;;;;4936740;29;20059;-87
2023/11/15 03:10:37;;;;;;;20.23;3.05;;;12.30;99.90;;;;;;4935510;29;20074;-88
2023/11/15 03:13:15;;;;;;;15.63;3.33;;;11.30;99.90;;;;;;4926288;29;20024;-87
2023/11/15 03:15:44;;;;;;;16.95;3.08;;;10.60;99.90;;;;;;4916330;29;20042;-88
2023/11/15 03:18:10;;;;;;;13.98;3.08;;;11.30;99.90;;;;;;4917620;29;20028;-87
2023/11/15 03:20:39;;;;;;;21.70;3.45;;;11.30;99.90;;;;;;4916762;29;20551;-88
2023/11/15 03:23:31;;;;;;;17.50;3.33;;;10.80;99.90;;;;;;4916611;29;20035;-88
2023/11/15 03:25:56;;;;;;;21.33;3.22;;;12.80;99.90;;;;;;4916272;29;20043;-87
2023/11/15 03:28:22;;;;;;;23.33;4.13;;;12.60;99.90;;;;;;4921643;29;20032;-87
2023/11/15 03:30:48;;;;;;;18.45;2.97;;;12.50;99.90;;;;;;4916486;29;20044;-87
2023/11/15 03:33:13;;;;;;;16.80;2.38;;;12.60;99.90;;;;;;4918738;29;20476;-87
2023/11/15 03:35:48;;;;;;;13.50;2.60;;;11.30;99.90;;;;;;4927533;29;20111;-88
2023/11/15 03:38:14;;;;;;;15.52;2.75;;;12.10;99.90;;;;;;4935301;29;20030;-89
2023/11/15 03:40:53;;;;;;;17.95;3.45;;;12.00;99.90;;;;;;4935835;29;20039;-88
2023/11/15 03:43:20;;;;;;;20.23;3.45;;;12.60;99.90;;;;;;4936100;29;20070;-86
2023/11/15 03:45:46;;;;;;;12.65;2.80;;;12.60;99.90;;;;;;4934696;29;20024;-87
2023/11/15 03:48:17;;;;;;;17.88;3.13;;;12.70;99.90;;;;;;4934115;29;20054;-88
2023/11/15 03:51:32;;;;;;;17.52;3.22;;;12.60;99.90;;;;;;4935102;29;20138;-87
2023/11/15 03:53:58;;;;;;;17.48;3.35;;;11.90;99.90;;;;;;4935133;29;20028;-87
2023/11/15 03:56:26;;;;;;;15.13;2.83;;;12.00;99.90;;;;;;4932246;29;20035;-87
2023/11/15 03:59:01;;;;;;;20.63;2.95;;;12.60;99.90;;;;;;4924275;29;20112;-87
2023/11/15 04:01:36;;;;;;;25.98;4.00;;;12.70;99.90;;;;;;4935295;29;20058;-87
2023/11/15 04:04:04;;;;;;;17.15;3.05;;;13.00;99.90;;;;;;4935431;29;20027;-86
2023/11/15 04:06:38;;;;;;;29.23;3.55;;;10.80;99.90;;;;;;4934604;29;20040;-87
2023/11/15 04:09:12;;;;;;;19.13;2.85;;;12.50;99.90;;;;;;4935252;29;20139;-86
2023/11/15 04:11:49;;;;;;;15.07;3.13;;;11.60;99.90;;;;;;4935080;29;20039;-87
2023/11/15 04:14:17;;;;;;;17.30;2.85;;;12.50;99.90;;;;;;4934944;29;20165;-87
2023/11/15 04:16:44;;;;;;;13.70;3.28;;;12.90;99.90;;;;;;4934856;29;20051;-87
2023/11/15 04:19:10;;;;;;;14.68;3.55;;;12.10;99.90;;;;;;4923857;29;20043;-87
2023/11/15 04:21:36;;;;;;;21.00;3.20;;;12.80;99.90;;;;;;4936162;29;20024;-87
2023/11/15 04:24:20;;;;;;;12.20;3.35;;;12.70;99.90;;;;;;4935790;29;20460;-87
2023/11/15 04:26:45;;;;;;;20.25;3.03;;;13.00;99.90;;;;;;4935265;29;20080;-87
2023/11/15 04:29:14;;;;;;;25.65;3.97;;;11.40;99.90;;;;;;4935069;29;20153;-87
2023/11/15 04:31:42;;;;;;;23.58;4.13;;;12.80;99.90;;;;;;4935534;29;20043;-87
2023/11/15 04:34:23;;;;;;;21.10;3.47;;;11.90;99.90;;;;;;4934280;29;20441;-87
2023/11/15 04:36:48;;;;;;;;;;;11.20;99.90;;;;;;4935617;29;20119;-87
2023/11/15 04:39:14;;;;;;;17.95;3.20;;;12.50;99.90;;;;;;4927608;29;20013;-89
2023/11/15 04:41:40;;;;;;;19.45;3.30;;;11.90;99.90;;;;;;4934084;29;20595;-87
2023/11/15 04:44:49;;;;;;;12.40;2.53;;;12.30;99.90;;;;;;4935250;29;20027;-86
2023/11/15 04:47:18;;;;;;;18.77;3.05;;;11.20;99.90;;;;;;4934403;29;20551;-87
2023/11/15 04:49:52;;;;;;;15.93;3.58;;;11.50;99.90;;;;;;4934324;29;20169;-86
2023/11/15 04:52:18;;;;;;;16.52;2.95;;;12.90;99.90;;;;;;4934898;29;20114;-87
2023/11/15 04:54:54;;;;;;;17.02;3.15;;;12.90;99.90;;;;;;4934398;29;20111;-86
2023/11/15 04:57:25;;;;;;;15.10;3.25;;;12.30;99.90;;;;;;4935167;29;20062;-87
2023/11/15 04:59:55;;;;;;;12.93;2.38;;;11.50;99.90;;;;;;4935238;29;20023;-87
2023/11/15 05:02:24;;;;;;;17.35;3.38;;;12.70;99.90;;;;;;4926651;29;20043;-86
2023/11/15 05:04:51;;;;;;;18.67;3.30;;;12.70;99.90;;;;;;4919929;29;20039;-86
2023/11/15 05:07:22;;;;;;;17.70;2.88;;;12.70;99.90;;;;;;4916309;29;20459;-87
2023/11/15 05:09:48;;;;;;;;;;;11.30;99.90;;;;;;4918911;29;20036;-87
2023/11/15 05:12:15;;;;;;;14.27;2.70;;;12.60;99.90;;;;;;4919523;29;19911;-86
2023/11/15 05:14:47;;;;;;;8.68;3.08;;;12.20;99.90;;;;;;4919730;29;20044;-87
2023/11/15 05:17:13;;;;;;;20.33;3.30;;;12.70;99.90;;;;;;4920670;29;20042;-87
2023/11/15 05:19:39;;;;;;;17.45;3.53;;;12.10;99.90;;;;;;4921264;29;20036;-87
2023/11/15 05:22:14;;;;;;;14.20;3.08;;;11.30;99.90;;;;;;4926194;29;20024;-87
2023/11/15 05:24:51;;;;;;;20.30;3.38;;;13.00;99.90;;;;;;4928518;29;20032;-86
2023/11/15 05:27:49;;;;;;;;;;;;;;;;;;;;;
2023/11/15 05:30:16;;;;;;;15.13;2.78;;;11.30;99.90;;;;;;4915278;29;20049;-86
2023/11/15 05:36:24;;;;;;;14.02;2.45;;;10.00;99.90;;;;;;4919139;29;20060;-87
2023/11/15 05:39:09;;;;;;;10.43;2.78;;;10.00;99.90;;;;;;4919086;29;20031;-87
2023/11/15 05:41:38;;;;;;;18.48;2.40;;;11.30;99.90;;;;;;4920163;29;20034;-86
2023/11/15 05:44:03;;;;;;;7.35;2.53;;;11.30;99.90;;;;;;4931599;29;20462;-87
2023/11/15 05:46:52;;;;;;;17.08;3.22;;;11.20;99.90;;;;;;4939384;29;20028;-86
2023/11/15 05:49:23;;;;;;;10.73;2.38;;;12.60;99.90;;;;;;4936190;29;20490;-86
2023/11/15 05:58:41;;;;;;;20.00;3.67;;;11.00;99.90;;;;;;4954679;29;20050;-87
2023/11/15 06:01:25;;;;;;;19.30;2.85;;;11.30;99.90;;;;;;4954767;29;20038;-86
2023/11/15 06:03:51;;;;;;;17.25;2.90;;;12.40;99.90;;;;;;4931694;29;20040;-87
2023/11/15 06:06:17;;;;;;;17.65;2.53;;;11.20;99.90;;;;;;4937335;29;20028;-86
2023/11/15 06:08:44;;;;;;;15.15;2.58;;;12.70;99.90;;;;;;4937303;29;20072;-87
2023/11/15 06:11:10;;;;;;;11.60;2.65;;;12.50;99.90;;;;;;4949055;29;20082;-87
2023/11/15 06:13:37;;;;;;;12.05;2.13;;;12.50;99.90;;;;;;4936625;29;20028;-87
2023/11/15 06:16:04;;;;;;;14.00;2.75;;;12.40;99.90;;;;;;4937626;29;20095;-87
2023/11/15 06:18:30;;;;;;;19.92;3.05;;;11.10;99.90;;;;;;4936167;29;20028;-87
2023/11/15 06:21:03;;;;;;;16.65;2.95;;;12.20;99.90;;;;;;4936832;29;20020;-87
2023/11/15 06:23:29;;;;;;;13.05;2.35;;;11.10;99.90;;;;;;4931776;29;20027;-87
2023/11/15 06:26:06;;;;;;;13.20;2.50;;;11.20;99.90;;;;;;4928312;29;20088;-87
2023/11/15 06:28:44;;;;;;;18.63;2.72;;;11.20;99.90;;;;;;4937749;29;20051;-88
2023/11/15 06:31:12;;;;;;;9.80;1.95;;;10.10;99.90;;;;;;4937682;29;20122;-85
2023/11/15 06:33:38;;;;;;;11.75;2.38;;;12.50;99.90;;;;;;4927957;29;20461;-84
2023/11/15 06:36:25;;;;;;;17.52;3.22;;;11.80;99.90;;;;;;4937599;29;20078;-86
2023/11/15 06:39:08;;;;;;;23.27;3.13;;;11.10;99.90;;;;;;4932021;29;20023;-85
2023/11/15 06:41:39;;;;;;;17.63;3.90;;;11.10;99.90;;;;;;4936015;29;20024;-87
2023/11/15 06:44:08;;;;;;;14.18;3.17;;;11.60;99.90;;;;;;4936119;29;20031;-86
2023/11/15 06:46:38;;;;;;;12.77;2.50;;;12.40;99.90;;;;;;4930512;29;20041;-87
2023/11/15 06:49:12;;;;;;;13.60;2.85;;;12.50;99.90;;;;;;4930812;29;20034;-86
2023/11/15 06:51:48;;;;;;;13.88;2.70;;;12.60;99.90;;;;;;4930771;29;20142;-86
2023/11/15 06:54:26;;;;;;;25.02;2.88;;;12.60;99.90;;;;;;4932409;29;20131;-87
2023/11/15 06:57:00;;;;;;;13.95;2.75;;;11.00;99.90;;;;;;4947726;28;20023;-86
2023/11/15 06:59:34;;;;;;;19.08;2.90;;;11.50;99.90;;;;;;4950346;29;20035;-85
2023/11/15 07:02:06;;;;;;;15.57;2.85;;;11.30;99.90;;;;;;4936450;29;20036;-84
2023/11/15 07:04:52;;;;;;;11.77;2.80;;;11.10;99.90;;;;;;4946882;29;20035;-85
2023/11/15 07:07:18;;;;;;;23.17;2.85;;;11.50;99.90;;;;;;4947342;29;20396;-85
2023/11/15 07:10:05;;;;;;;13.98;3.10;;;12.40;99.90;;;;;;4940143;28;20036;-85
2023/11/15 07:12:30;;;;;;;16.40;2.35;;;11.20;99.90;;;;;;4944370;28;20030;-85
2023/11/15 07:14:57;;;;;;;13.30;3.22;;;11.10;99.90;;;;;;4939633;29;20032;-85
2023/11/15 07:17:23;;;;;;;18.95;3.28;;;11.10;99.90;;;;;;4935413;29;20024;-84
2023/11/15 07:19:49;;;;;;;16.98;3.30;;;11.10;99.90;;;;;;4935683;29;20024;-86
2023/11/15 07:22:17;;;;;;;13.70;2.92;;;11.10;99.90;;;;;;4937488;29;20023;-86
2023/11/15 07:24:43;;;;;;;28.58;3.65;;;11.10;99.90;;;;;;4953618;29;20106;-85
2023/11/15 07:27:09;;;;;;;13.57;2.83;;;11.10;99.90;;;;;;4955254;28;20106;-86
2023/11/15 07:29:36;;;;;;;22.17;2.72;;;11.10;99.90;;;;;;4937412;28;20043;-86
2023/11/15 07:32:04;;;;;;;12.90;3.05;;;11.10;99.90;;;;;;4922602;29;20219;-85
2023/11/15 07:34:32;;;;;;;16.10;3.42;;;11.10;99.90;;;;;;4917024;29;20039;-86
2023/11/15 07:36:57;;;;;;;16.88;2.67;;;11.50;99.90;;;;;;4916197;29;20028;-86
2023/11/15 07:39:29;;;;;;;12.43;2.78;;;11.10;99.90;;;;;;4920017;29;20038;-93
2023/11/15 07:41:55;;;;;;;17.58;3.50;;;11.20;99.90;;;;;;4939492;29;20500;-88
2023/11/15 07:44:20;;;;;;;18.98;3.47;;;11.20;99.90;;;;;;4943001;28;20038;-91
2023/11/15 07:46:49;;;;;;;22.40;3.35;;;11.60;99.90;;;;;;4934045;29;20113;-83
2023/11/15 07:49:18;;;;;;;17.55;3.95;;;10.90;99.90;;;;;;4929606;29;20027;-84
2023/11/15 07:51:47;;;;;;;17.08;3.47;;;11.10;99.90;;;;;;4933246;29;20063;-85
2023/11/15 07:54:13;;;;;;;11.75;2.92;;;11.20;99.90;;;;;;4931465;28;20086;-86
2023/11/15 07:56:39;;;;;;;16.15;3.05;;;11.20;99.90;;;;;;4939923;28;20367;-89
2023/11/15 07:59:05;;;;;;;22.90;3.13;;;11.10;99.90;;;;;;4957645;28;20027;-86
2023/11/15 08:01:31;;;;;;;19.17;3.45;;;12.20;99.90;;;;;;4942151;29;20330;-88
2023/11/15 08:03:57;;;;;;;13.02;3.10;;;11.10;99.90;;;;;;4934048;29;20052;-87
2023/11/15 08:06:22;;;;;;;18.88;2.95;;;11.10;99.90;;;;;;4933434;29;20058;-90
2023/11/15 08:08:48;;;;;;;7.28;2.03;;;11.10;99.90;;;;;;4934190;29;20028;-86
2023/11/15 08:11:15;;;;;;;10.85;2.00;;;11.10;99.90;;;;;;4931434;29;20095;-92
2023/11/15 08:13:41;;;;;;;13.98;3.08;;;11.80;99.90;;;;;;4928999;29;20043;-83
2023/11/15 08:16:12;;;;;;;13.38;2.33;;;11.10;99.90;;;;;;4929636;29;20116;-89
2023/11/15 08:18:39;;;;;;;5.95;1.63;;;11.10;99.90;;;;;;4939401;29;20110;-88
2023/11/15 08:21:05;;;;;;;11.48;2.22;;;11.10;99.90;;;;;;4938850;29;20070;-87
2023/11/15 08:23:31;;;;;;;15.55;2.75;;;11.10;99.90;;;;;;4937810;29;20060;-87
2023/11/15 08:26:02;;;;;;;15.93;2.95;;;11.10;99.90;;;;;;4938801;28;20064;-87
2023/11/15 08:28:27;;;;;;;12.73;2.58;;;12.50;99.90;;;;;;4941804;29;20040;-91
2023/11/15 08:30:53;;;;;;;14.15;2.60;;;12.00;99.90;;;;;;4939274;29;20563;-88
2023/11/15 08:33:19;;;;;;;14.00;2.75;;;11.70;99.90;;;;;;4938644;29;20039;-91
2023/11/15 08:35:47;;;;;;;16.15;3.83;;;10.80;99.90;;;;;;4934501;29;20046;-88
2023/11/15 08:38:12;;;;;;;23.52;2.97;;;12.20;99.90;;;;;;4918602;29;20032;-92
2023/11/15 08:40:38;;;;;;;13.23;2.83;;;11.20;99.90;;;;;;4925706;29;20034;-92
2023/11/15 08:43:04;;;;;;;12.02;2.60;;;12.40;99.90;;;;;;4937778;29;20055;-92
2023/11/15 08:45:29;;;;;;;18.88;3.58;;;12.60;99.90;;;;;;4939094;29;20032;-90
2023/11/15 08:48:17;;;;;;;26.40;2.88;;;12.50;99.90;;;;;;4930869;29;20024;-91
2023/11/15 08:50:43;;;;;;;22.10;3.65;;;11.00;99.90;;;;;;4930008;29;20060;-90
2023/11/15 08:53:14;;;;;;;25.33;3.25;;;11.20;99.90;;;;;;4930143;29;20024;-90
2023/11/15 08:55:44;;;;;;;16.88;3.40;;;11.30;99.90;;;;;;4921019;29;20123;-89
2023/11/15 08:58:11;;;;;;;15.68;3.05;;;11.20;99.90;;;;;;4920786;29;20033;-90
2023/11/15 09:00:37;;;;;;;23.63;4.35;;;11.20;99.90;;;;;;4923370;29;20420;-88
2023/11/15 09:03:08;;;;;;;25.83;4.40;;;11.20;99.90;;;;;;4920708;29;20086;-89
2023/11/15 09:05:35;;;;;;;12.57;2.55;;;11.20;99.90;;;;;;4920078;29;20028;-88
2023/11/15 09:08:01;;;;;;;19.48;3.05;;;11.20;99.90;;;;;;4919121;29;20043;-87
2023/11/15 09:10:27;;;;;;;21.27;2.95;;;11.50;99.90;;;;;;4941154;29;20043;-87
2023/11/15 09:12:54;;;;;;;21.80;3.97;;;11.20;99.90;;;;;;4957986;28;20058;-87
2023/11/15 09:15:20;;;;;;;10.93;2.85;;;11.20;99.90;;;;;;4934278;28;20326;-88
2023/11/15 09:17:46;;;;;;;17.45;2.70;;;11.30;99.90;;;;;;4919642;29;20064;-90
2023/11/15 09:20:26;;;;;;;13.23;2.90;;;12.00;99.90;;;;;;4920426;29;20059;-87
2023/11/15 09:22:55;;;;;;;10.77;2.33;;;11.30;99.90;;;;;;4919908;29;20383;-91
2023/11/15 09:25:25;;;;;;;16.35;2.58;;;11.90;99.90;;;;;;4926074;29;20286;-86
2023/11/15 09:27:52;;;;;;;22.33;3.23;;;11.30;99.90;;;;;;4938370;29;20031;-89
2023/11/15 09:30:18;;;;;;;11.43;2.28;;;11.40;99.90;;;;;;4938077;29;20370;-89
2023/11/15 09:32:46;;;;;;;9.10;2.85;;;12.00;99.90;;;;;;4938970;29;20031;-84
2023/11/15 09:35:14;;;;;;;17.58;3.25;;;11.40;99.90;;;;;;4938750;29;20027;-84
2023/11/15 09:37:41;;;;;;;18.80;2.90;;;11.50;99.90;;;;;;4945274;29;20530;-84
2023/11/15 09:40:11;;;;;;;22.92;3.45;;;11.50;99.90;;;;;;4941408;29;20035;-85
2023/11/15 09:42:46;;;;;;;18.80;3.77;;;11.60;99.90;;;;;;4949279;29;20036;-86
2023/11/15 09:45:18;;;;;;;21.27;3.10;;;11.60;99.90;;;;;;4952052;29;20027;-85
2023/11/15 09:47:49;;;;;;;14.27;3.80;;;11.70;99.90;;;;;;4943315;29;20023;-85
2023/11/15 09:50:21;;;;;;;18.27;3.00;;;11.70;99.90;;;;;;4946714;29;20051;-84
2023/11/15 09:52:49;;;;;;;14.25;2.40;;;11.70;99.90;;;;;;4941567;29;20038;-86
2023/11/15 09:55:23;;;;;;;13.55;2.28;;;11.70;99.90;;;;;;4937723;28;20485;-87
2023/11/15 09:57:51;;;;;;;14.50;2.85;;;11.70;99.90;;;;;;4941334;28;20031;-85
2023/11/15 10:00:19;;;;;;;18.85;2.65;;;11.80;99.90;;;;;;4937845;29;20040;-86
2023/11/15 10:02:45;;;;;;;19.10;2.78;;;11.80;99.90;;;;;;4935377;29;20020;-86
2023/11/15 10:05:28;;;;;;;15.85;2.33;;;11.80;99.90;;;;;;4935808;29;20097;-86
2023/11/15 10:08:11;;;;;;;12.55;2.60;;;11.80;99.90;;;;;;4926283;29;20028;-86
2023/11/15 10:10:38;;;;;;;17.30;2.40;;;11.80;99.90;;;;;;4931313;29;20378;-82
2023/11/15 10:13:15;;;;;;;19.27;3.97;;;11.90;99.90;;;;;;4918663;29;20114;-84
2023/11/15 10:15:43;;;;;;;13.82;2.65;;;11.90;99.90;;;;;;4917171;29;20055;-84
2023/11/15 10:18:14;;;;;;;9.73;2.85;;;12.00;99.90;;;;;;4917317;29;20024;-84
2023/11/15 10:20:44;;;;;;;13.73;2.47;;;11.80;99.90;;;;;;4916529;29;20440;-84
2023/11/15 10:23:10;;;;;;;16.27;3.08;;;11.90;99.90;;;;;;4923043;29;20115;-84
2023/11/15 10:25:54;;;;;;;20.55;2.58;;;11.90;99.90;;;;;;4934457;29;20028;-84
2023/11/15 10:28:25;;;;;;;25.60;4.40;;;11.90;99.90;;;;;;4928375;29;20055;-84
2023/11/15 10:31:06;;;;;;;14.05;3.85;;;11.90;99.90;;;;;;4934166;29;20067;-84
2023/11/15 10:33:32;;;;;;;19.35;4.15;;;11.90;99.90;;;;;;4933705;29;20314;-84
2023/11/15 10:36:21;;;;;;;16.85;2.92;;;11.90;99.90;;;;;;4935079;29;20027;-84
2023/11/15 10:38:59;;;;;;;15.90;2.85;;;11.90;99.90;;;;;;4928430;29;20024;-84
2023/11/15 10:41:29;;;;;;;20.95;3.20;;;11.90;99.90;;;;;;4915842;29;20079;-85
2023/11/15 10:43:56;;;;;;;14.50;2.97;;;12.00;99.90;;;;;;4920840;29;20036;-84
2023/11/15 10:46:30;;;;;;;18.38;3.05;;;12.00;99.90;;;;;;4916997;29;20823;-83
2023/11/15 10:48:58;;;;;;;21.38;3.47;;;12.00;99.90;;;;;;4918298;29;20032;-83
2023/11/15 10:51:41;;;;;;;14.52;2.85;;;12.00;99.90;;;;;;4916998;29;20052;-84
2023/11/15 10:54:13;;;;;;;16.38;3.58;;;12.00;99.90;;;;;;4934198;29;20115;-84
2023/11/15 10:56:40;;;;;;;21.85;3.45;;;11.90;99.90;;;;;;4930469;29;20032;-85
2023/11/15 10:59:06;;;;;;;15.48;2.63;;;11.80;99.90;;;;;;4930239;29;20104;-84
2023/11/15 11:01:34;;;;;;;17.45;2.75;;;11.80;99.90;;;;;;4932579;29;20028;-84
2023/11/15 11:04:03;;;;;;;16.85;3.67;;;11.80;99.90;;;;;;4920329;29;20024;-86
2023/11/15 11:06:50;;;;;;;14.13;2.83;;;12.30;99.90;;;;;;4932017;29;20140;-87
2023/11/15 11:09:18;;;;;;;13.38;2.47;;;11.90;99.90;;;;;;4920148;29;20038;-86
2023/11/15 11:11:56;;;;;;;14.88;2.55;;;12.00;99.90;;;;;;4924005;29;20106;-84
2023/11/15 11:14:26;;;;;;;12.57;2.80;;;12.00;99.90;;;;;;4930931;29;20028;-85
2023/11/15 11:16:52;;;;;;;;;;;12.00;99.90;;;;;;4931545;29;20036;-85
2023/11/15 11:19:22;;;;;;;15.35;3.28;;;12.00;99.90;;;;;;4923499;29;20287;-85
2023/11/15 11:22:02;;;;;;;10.35;2.90;;;12.00;99.90;;;;;;4926751;29;20090;-86
2023/11/15 11:24:53;;;;;;;10.88;2.65;;;11.90;99.90;;;;;;4933869;29;20028;-85
2023/11/15 11:27:19;;;;;;;12.77;2.38;;;11.90;99.90;;;;;;4922430;29;20472;-86
2023/11/15 11:29:48;;;;;;;14.60;2.78;;;12.00;99.90;;;;;;4933802;29;20042;-83
2023/11/15 11:32:28;;;;;;;17.10;2.42;;;11.90;99.90;;;;;;4924052;29;20492;-86
2023/11/15 11:35:13;;;;;;;10.90;2.47;;;11.80;99.90;;;;;;4915428;29;20054;-86
2023/11/15 11:37:44;;;;;;;12.85;2.58;;;11.80;99.90;;;;;;4926968;29;22073;-87
2023/11/15 11:40:13;;;;;;;14.73;2.28;;;11.70;99.90;;;;;;4931265;29;20114;-86
2023/11/15 11:42:43;;;;;;;10.00;1.88;;;11.70;99.90;;;;;;4933043;29;20103;-86
2023/11/15 11:45:10;;;;;;;11.57;2.15;;;11.60;99.90;;;;;;4929316;29;20043;-85
2023/11/15 11:47:39;;;;;;;11.82;1.92;;;11.70;99.90;;;;;;4921723;29;20050;-85
2023/11/15 11:50:09;;;;;;;9.40;2.37;;;11.60;99.90;;;;;;4925012;29;20048;-84
2023/11/15 11:52:35;;;;;;;15.07;2.63;;;11.50;99.90;;;;;;4931459;29;20114;-85
2023/11/15 11:55:03;;;;;;;10.13;2.22;;;11.50;99.90;;;;;;4925524;29;20103;-85
2023/11/15 11:57:29;;;;;;;18.05;2.55;;;11.50;99.90;;;;;;4930760;29;20028;-85
2023/11/15 12:00:11;;;;;;;12.18;2.67;;;11.40;99.90;;;;;;4928113;29;20392;-85
2023/11/15 12:02:41;;;;;;;12.45;2.47;;;11.40;99.90;;;;;;4927554;29;20362;-84
2023/11/15 12:05:10;;;;;;;8.75;2.17;;;11.40;99.90;;;;;;4918377;29;20040;-85
2023/11/15 12:07:43;;;;;;;9.82;2.33;;;11.50;99.90;;;;;;4922804;29;20058;-84
2023/11/15 12:10:13;;;;;;;20.08;2.60;;;11.50;99.90;;;;;;4915127;29;20440;-88
2023/11/15 12:12:40;;;;;;;11.75;2.15;;;11.50;99.90;;;;;;4929224;29;20086;-84
2023/11/15 12:15:13;;;;;;;13.70;2.25;;;11.60;99.90;;;;;;4924570;29;20396;-84
2023/11/15 12:17:40;;;;;;;13.45;3.53;;;11.70;99.90;;;;;;4925305;29;20031;-88
2023/11/15 12:20:12;;;;;;;17.70;3.42;;;12.70;99.90;;;;;;4932673;29;20551;-87
2023/11/15 12:22:42;;;;;;;10.35;2.33;;;11.70;99.90;;;;;;4928481;29;20031;-85
2023/11/15 12:25:09;;;;;;;12.35;2.38;;;12.10;99.90;;;;;;4925076;29;20111;-86
2023/11/15 12:27:38;;;;;;;13.68;2.67;;;11.90;99.90;;;;;;4914747;29;20036;-86
2023/11/15 12:30:07;;;;;;;18.42;3.08;;;11.90;99.90;;;;;;4925664;29;20048;-87
2023/11/15 12:32:37;;;;;;;12.07;2.25;;;12.00;99.90;;;;;;4933763;29;20078;-87
2023/11/15 12:35:06;;;;;;;17.17;3.13;;;12.10;99.90;;;;;;4917540;29;20123;-88
2023/11/15 12:37:36;;;;;;;11.07;2.13;;;12.20;99.90;;;;;;4916254;29;20063;-88
2023/11/15 12:40:18;;;;;;;15.88;2.60;;;12.30;99.90;;;;;;4915171;29;20389;-89
2023/11/15 12:42:43;;;;;;;18.52;2.60;;;12.30;99.90;;;;;;4916608;29;20123;-89
2023/11/15 12:45:27;;;;;;;12.48;2.40;;;12.70;99.90;;;;;;4916749;29;20116;-88
2023/11/15 12:48:00;;;;;;;14.85;3.22;;;12.20;99.90;;;;;;4933750;29;20040;-88
2023/11/15 12:50:34;;;;;;;10.68;2.33;;;12.20;99.90;;;;;;4934805;29;20044;-89
2023/11/15 12:53:08;;;;;;;15.65;2.78;;;12.20;99.90;;;;;;4932411;29;20103;-89
2023/11/15 12:55:54;;;;;;;18.92;2.88;;;12.10;99.90;;;;;;4935017;29;20032;-89
2023/11/15 12:58:42;;;;;;;12.45;2.30;;;12.00;99.90;;;;;;4915972;29;20051;-88
2023/11/15 13:01:15;;;;;;;13.90;2.33;;;11.90;99.90;;;;;;4916267;29;20509;-88
2023/11/15 13:03:42;;;;;;;12.50;2.50;;;11.90;99.90;;;;;;4920452;29;20564;-87
2023/11/15 13:06:19;;;;;;;16.08;2.83;;;11.90;99.90;;;;;;4935463;29;20032;-89
2023/11/15 13:08:50;;;;;;;11.43;2.40;;;11.90;99.90;;;;;;4934806;29;20030;-88
2023/11/15 13:11:17;;;;;;;7.43;2.10;;;11.90;99.90;;;;;;4935521;29;20397;-88
2023/11/15 13:13:48;;;;;;;22.02;2.78;;;12.00;99.90;;;;;;4934925;29;20139;-89
2023/11/15 13:16:18;;;;;;;9.82;3.08;;;12.10;99.90;;;;;;4916778;29;20087;-87
2023/11/15 13:18:44;;;;;;;15.23;2.42;;;12.00;99.90;;;;;;4916520;29;20039;-85
2023/11/15 13:21:12;;;;;;;18.67;3.35;;;12.10;99.90;;;;;;4915014;29;20059;-84